createdAt,value
2019-03-19T00:00:24.081Z,4.19
2019-03-19T00:03:12.687Z,4.29
2019-03-19T00:06:01.587Z,3.93
2019-03-19T00:08:49.613Z,3.90
2019-03-19T00:11:38.120Z,4.11
2019-03-19T00:14:26.904Z,4.24
2019-03-19T00:17:15.028Z,3.95
2019-03-19T00:20:03.511Z,3.72
2019-03-19T00:22:52.023Z,3.62
2019-03-19T00:25:43.196Z,3.08
2019-03-19T00:28:31.052Z,2.64
2019-03-19T00:31:19.611Z,2.55
2019-03-19T00:34:07.756Z,2.75
2019-03-19T00:36:55.941Z,3.19
2019-03-19T00:39:44.565Z,3.23
2019-03-19T00:42:32.794Z,3.23
2019-03-19T00:45:20.925Z,3.33
2019-03-19T00:48:09.418Z,3.58
2019-03-19T00:50:57.741Z,3.66
2019-03-19T00:53:45.651Z,3.82
2019-03-19T00:56:33.925Z,3.84
2019-03-19T00:59:22.146Z,3.59
2019-03-19T01:02:10.659Z,3.25
2019-03-19T01:04:59.563Z,2.78
2019-03-19T01:07:47.611Z,2.74
2019-03-19T01:10:35.991Z,2.65
2019-03-19T01:13:24.634Z,2.53
2019-03-19T01:16:12.794Z,2.61
2019-03-19T01:19:00.998Z,2.88
2019-03-19T01:21:49.191Z,2.79
2019-03-19T01:24:37.304Z,2.83
2019-03-19T01:27:26.743Z,2.71
2019-03-19T01:30:15.499Z,2.59
2019-03-19T01:33:03.823Z,2.42
2019-03-19T01:35:51.868Z,2.54
2019-03-19T01:38:40.658Z,2.53
2019-03-19T01:41:28.463Z,2.58
2019-03-19T01:44:16.935Z,2.62
2019-03-19T01:47:04.685Z,2.53
2019-03-19T01:49:53.139Z,2.46
2019-03-19T01:52:41.850Z,2.41
2019-03-19T01:55:30.023Z,2.68
2019-03-19T01:58:18.036Z,2.81
2019-03-19T02:01:06.472Z,3.03
2019-03-19T02:03:55.018Z,2.83
2019-03-19T02:06:43.490Z,2.71
2019-03-19T02:09:32.203Z,2.74
2019-03-19T02:12:19.986Z,2.62
2019-03-19T02:15:08.307Z,2.41
2019-03-19T02:17:57.232Z,2.22
2019-03-19T02:20:46.234Z,2.48
2019-03-19T02:23:34.544Z,1.95
2019-03-19T02:26:22.556Z,1.61
2019-03-19T02:29:11.092Z,1.35
2019-03-19T02:31:59.062Z,1.25
2019-03-19T02:34:47.474Z,1.04
2019-03-19T02:37:35.640Z,1.09
2019-03-19T02:40:24.613Z,1.30
2019-03-19T02:43:12.452Z,1.69
2019-03-19T02:46:00.734Z,1.93
2019-03-19T02:48:48.701Z,2.16
2019-03-19T02:51:36.793Z,2.11
2019-03-19T02:54:24.593Z,2.24
2019-03-19T02:57:13.180Z,2.33
2019-03-19T03:00:01.149Z,2.58
2019-03-19T03:02:49.312Z,2.59
2019-03-19T03:05:38.248Z,2.61
2019-03-19T03:08:26.001Z,2.79
2019-03-19T03:11:14.770Z,2.61
2019-03-19T03:14:02.264Z,2.39
2019-03-19T03:16:50.804Z,2.42
2019-03-19T03:19:39.317Z,2.18
2019-03-19T03:22:27.880Z,2.17
2019-03-19T03:25:16.030Z,2.21
2019-03-19T03:28:04.536Z,2.08
2019-03-19T03:30:52.323Z,2.23
2019-03-19T03:33:41.267Z,2.16
2019-03-19T03:36:29.652Z,2.02
2019-03-19T03:39:17.763Z,1.61
2019-03-19T03:42:06.228Z,1.65
2019-03-19T03:44:54.414Z,1.43
2019-03-19T03:47:42.586Z,1.69
2019-03-19T03:50:32.861Z,1.77
2019-03-19T03:53:21.712Z,1.46
2019-03-19T03:56:09.543Z,1.16
2019-03-19T03:59:01.069Z,1.30
2019-03-19T04:01:47.510Z,1.48
2019-03-19T04:04:36.477Z,1.68
2019-03-19T04:07:24.947Z,1.65
2019-03-19T04:10:13.187Z,1.59
2019-03-19T04:13:01.742Z,1.25
2019-03-19T04:15:50.287Z,1.51
2019-03-19T04:18:38.596Z,1.54
2019-03-19T04:21:27.125Z,1.65
2019-03-19T04:24:15.554Z,1.92
2019-03-19T04:27:15.473Z,1.88
2019-03-19T04:29:54.929Z,2.03
2019-03-19T04:32:42.728Z,2.23
2019-03-19T04:35:31.209Z,2.39
2019-03-19T04:38:19.799Z,2.34
2019-03-19T04:41:08.309Z,2.36
2019-03-19T04:43:56.938Z,2.31
2019-03-19T04:46:45.035Z,2.12
2019-03-19T04:49:33.195Z,1.40
2019-03-19T04:52:21.259Z,1.13
2019-03-19T04:55:09.937Z,0.81
2019-03-19T04:57:57.907Z,0.94
2019-03-19T05:00:46.395Z,1.22
2019-03-19T05:03:35.824Z,1.01
2019-03-19T05:06:23.951Z,0.85
2019-03-19T05:09:12.589Z,0.81
2019-03-19T05:12:00.478Z,0.93
2019-03-19T05:14:48.968Z,1.20
2019-03-19T05:17:37.559Z,1.51
2019-03-19T05:20:25.264Z,1.88
2019-03-19T05:23:13.787Z,2.00
2019-03-19T05:26:02.215Z,2.06
2019-03-19T05:28:50.695Z,2.47
2019-03-19T05:31:38.863Z,2.81
2019-03-19T05:34:27.193Z,3.04
2019-03-19T05:37:15.782Z,3.15
2019-03-19T05:40:04.323Z,3.56
2019-03-19T05:42:52.176Z,3.87
2019-03-19T05:45:40.686Z,3.73
2019-03-19T05:48:28.515Z,3.97
2019-03-19T05:51:16.954Z,4.18
2019-03-19T05:54:05.174Z,4.44
2019-03-19T05:56:56.828Z,4.75
2019-03-19T05:59:45.092Z,5.09
2019-03-19T06:02:33.700Z,5.39
2019-03-19T06:05:22.122Z,5.61
2019-03-19T06:08:10.528Z,5.92
2019-03-19T06:10:59.036Z,5.87
2019-03-19T06:13:48.031Z,6.25
2019-03-19T06:16:36.569Z,6.54
2019-03-19T06:19:25.032Z,6.91
2019-03-19T06:22:13.445Z,6.98
2019-03-19T06:25:01.631Z,6.61
2019-03-19T06:27:59.966Z,6.77
2019-03-19T06:30:40.034Z,6.64
2019-03-19T06:33:28.164Z,7.26
2019-03-19T06:36:16.601Z,7.99
2019-03-19T06:39:06.883Z,8.37
2019-03-19T06:41:55.181Z,8.65
2019-03-19T06:44:44.181Z,8.43
2019-03-19T06:47:32.433Z,8.40
2019-03-19T06:50:20.933Z,8.76
2019-03-19T06:53:08.986Z,9.01
2019-03-19T06:55:56.814Z,9.01
2019-03-19T06:58:45.607Z,8.90
2019-03-19T07:01:33.834Z,9.04
2019-03-19T07:04:22.242Z,9.17
2019-03-19T07:07:10.844Z,9.30
2019-03-19T07:09:58.660Z,9.17
2019-03-19T07:12:46.759Z,9.46
2019-03-19T07:15:35.259Z,9.77
2019-03-19T07:18:23.775Z,9.75
2019-03-19T07:21:11.931Z,9.61
2019-03-19T07:23:59.881Z,9.87
2019-03-19T07:26:47.678Z,10.03
2019-03-19T07:29:35.961Z,10.15
2019-03-19T07:32:24.830Z,10.36
2019-03-19T07:35:13.410Z,10.61
2019-03-19T07:38:01.467Z,10.98
2019-03-19T07:40:50.186Z,11.15
2019-03-19T07:43:38.322Z,11.24
2019-03-19T07:46:26.223Z,11.30
2019-03-19T07:49:14.407Z,11.29
2019-03-19T07:52:02.899Z,11.67
2019-03-19T07:54:51.121Z,11.83
2019-03-19T07:57:39.289Z,11.01
2019-03-19T08:00:27.690Z,11.38
2019-03-19T08:03:16.602Z,12.13
2019-03-19T08:06:05.316Z,12.57
2019-03-19T08:08:53.917Z,12.64
2019-03-19T08:11:42.068Z,13.09
2019-03-19T08:14:30.167Z,13.20
2019-03-19T08:17:18.625Z,12.98
2019-03-19T08:20:06.618Z,13.48
2019-03-19T08:22:55.237Z,13.80
2019-03-19T08:25:42.882Z,13.61
2019-03-19T08:28:33.653Z,13.82
2019-03-19T08:31:21.062Z,13.81
2019-03-19T08:34:09.761Z,14.10
2019-03-19T08:36:58.139Z,14.24
2019-03-19T08:39:46.588Z,14.04
2019-03-19T08:42:35.696Z,14.17
2019-03-19T08:45:23.748Z,14.20
2019-03-19T08:48:15.277Z,14.23
2019-03-19T08:51:03.937Z,14.62
2019-03-19T08:53:51.894Z,14.88
2019-03-19T08:56:39.653Z,15.37
2019-03-19T08:59:28.653Z,14.95
2019-03-19T09:02:16.492Z,15.36
2019-03-19T09:05:05.043Z,15.37
2019-03-19T09:07:53.227Z,15.41
2019-03-19T09:10:41.757Z,15.87
2019-03-19T09:13:30.317Z,16.42
2019-03-19T09:16:18.848Z,16.31
2019-03-19T09:19:07.220Z,16.60
2019-03-19T09:21:55.344Z,16.45
2019-03-19T09:24:43.777Z,16.36
2019-03-19T09:27:31.835Z,16.61
2019-03-19T09:30:20.764Z,16.69
2019-03-19T09:33:09.098Z,16.13
2019-03-19T09:35:57.587Z,16.39
2019-03-19T09:38:46.244Z,16.16
2019-03-19T09:41:34.868Z,16.16
2019-03-19T09:44:22.463Z,16.07
2019-03-19T09:47:10.978Z,15.34
2019-03-19T09:49:58.820Z,15.38
2019-03-19T09:52:47.498Z,15.67
2019-03-19T09:55:35.788Z,16.11
2019-03-19T09:58:24.192Z,16.43
2019-03-19T10:01:14.726Z,16.86
2019-03-19T10:04:06.538Z,17.48
2019-03-19T10:06:54.168Z,17.22
2019-03-19T10:09:41.963Z,17.19
2019-03-19T10:12:29.940Z,17.45
2019-03-19T10:15:18.315Z,17.84
2019-03-19T10:18:06.585Z,17.57
2019-03-19T10:20:54.439Z,17.90
2019-03-19T10:23:42.745Z,18.14
2019-03-19T10:26:31.533Z,18.32
2019-03-19T10:29:20.045Z,18.67
2019-03-19T10:32:09.952Z,18.25
2019-03-19T10:38:05.124Z,18.61
2019-03-19T10:40:53.701Z,18.68
2019-03-19T10:43:42.218Z,18.22
2019-03-19T10:46:31.770Z,18.01
2019-03-19T10:49:20.634Z,17.98
2019-03-19T10:52:08.642Z,17.63
2019-03-19T10:54:57.089Z,17.10
2019-03-19T10:57:46.179Z,16.76
2019-03-19T11:00:34.721Z,17.07
2019-03-19T11:03:22.600Z,17.07
2019-03-19T11:06:13.405Z,17.31
2019-03-19T11:09:01.967Z,17.14
2019-03-19T11:11:49.889Z,17.17
2019-03-19T11:14:38.011Z,17.32
2019-03-19T11:17:28.446Z,17.31
2019-03-19T11:20:16.913Z,17.40
2019-03-19T11:23:05.180Z,17.59
2019-03-19T11:25:54.751Z,17.69
2019-03-19T11:28:42.752Z,17.64
2019-03-19T11:31:31.265Z,18.21
2019-03-19T11:34:19.529Z,18.59
2019-03-19T11:37:08.012Z,18.43
2019-03-19T11:39:55.802Z,18.52
2019-03-19T11:42:44.199Z,18.51
2019-03-19T11:45:32.440Z,18.17
2019-03-19T11:48:20.991Z,18.26
2019-03-19T11:51:09.220Z,17.96
2019-03-19T11:53:58.214Z,18.05
2019-03-19T11:56:46.323Z,18.50
2019-03-19T11:59:35.116Z,18.74
2019-03-19T12:02:26.253Z,18.94
2019-03-19T12:05:13.162Z,18.84
2019-03-19T12:08:01.617Z,19.28
2019-03-19T12:10:50.207Z,19.57
2019-03-19T12:13:38.708Z,19.29
2019-03-19T12:16:27.245Z,19.13
2019-03-19T12:19:15.761Z,18.75
2019-03-19T12:22:03.571Z,18.87
2019-03-19T12:24:52.571Z,18.33
2019-03-19T12:27:40.893Z,18.56
2019-03-19T12:30:28.996Z,18.52
2019-03-19T12:33:18.351Z,18.28
2019-03-19T12:36:06.558Z,18.46
2019-03-19T12:38:55.284Z,18.37
2019-03-19T12:41:43.760Z,18.60
2019-03-19T12:44:32.409Z,18.89
2019-03-19T12:47:20.942Z,19.54
2019-03-19T12:50:10.836Z,19.91
2019-03-19T12:56:05.942Z,20.68
2019-03-19T12:58:54.404Z,21.10
2019-03-19T13:01:42.249Z,20.98
2019-03-19T13:04:31.070Z,20.94
2019-03-19T13:07:19.611Z,20.15
2019-03-19T13:10:09.479Z,20.25
2019-03-19T13:12:58.053Z,20.91
2019-03-19T13:15:46.711Z,20.92
2019-03-19T13:18:35.269Z,20.97
2019-03-19T13:21:23.814Z,21.18
2019-03-19T13:24:12.589Z,21.26
2019-03-19T13:27:00.746Z,20.76
2019-03-19T13:29:48.622Z,20.73
2019-03-19T13:32:37.323Z,21.22
2019-03-19T13:35:25.688Z,20.48
2019-03-19T13:38:14.237Z,20.79
2019-03-19T13:41:01.842Z,20.65
2019-03-19T13:43:50.020Z,20.47
2019-03-19T13:46:38.621Z,19.69
2019-03-19T13:49:27.198Z,19.19
2019-03-19T13:52:15.032Z,19.12
2019-03-19T13:55:03.227Z,19.18
2019-03-19T13:57:52.795Z,19.82
2019-03-19T14:00:41.447Z,20.02
2019-03-19T14:03:34.510Z,19.61
2019-03-19T14:06:45.808Z,20.84
2019-03-19T14:09:33.488Z,22.09
2019-03-19T14:12:28.028Z,23.41
2019-03-19T14:15:37.102Z,24.40
2019-03-19T14:18:44.659Z,24.34
2019-03-19T14:22:18.923Z,25.11
2019-03-19T14:25:45.892Z,25.42
2019-03-19T14:28:48.248Z,25.75
2019-03-19T14:32:16.757Z,26.82
2019-03-19T14:35:42.807Z,25.21
2019-03-19T14:38:54.382Z,23.26
2019-03-19T14:41:45.954Z,21.72
2019-03-19T14:44:35.030Z,20.45
2019-03-19T14:47:24.092Z,19.14
2019-03-19T14:50:12.823Z,18.22
2019-03-19T14:53:01.138Z,18.10
2019-03-19T14:55:49.681Z,18.93
2019-03-19T14:58:38.589Z,19.01
2019-03-19T15:01:27.071Z,18.84
2019-03-19T15:04:15.541Z,18.43
2019-03-19T15:07:04.300Z,18.14
2019-03-19T15:09:52.812Z,18.06
2019-03-19T15:12:41.310Z,17.85
2019-03-19T15:15:53.106Z,17.91
2019-03-19T15:19:05.914Z,17.80
2019-03-19T15:21:54.299Z,17.83
2019-03-19T15:25:22.391Z,17.75
2019-03-19T15:28:10.521Z,17.61
2019-03-19T15:30:58.927Z,17.37
2019-03-19T15:33:47.638Z,17.08
2019-03-19T15:36:36.121Z,17.09
2019-03-19T15:39:23.916Z,16.91
2019-03-19T15:42:11.895Z,16.90
2019-03-19T15:45:05.992Z,16.83
2019-03-19T15:47:53.904Z,16.54
2019-03-19T15:50:41.861Z,16.42
2019-03-19T15:53:30.937Z,16.48
2019-03-19T15:56:18.763Z,16.35
2019-03-19T15:59:07.706Z,16.00
2019-03-19T16:01:56.249Z,15.82
2019-03-19T16:04:43.880Z,15.74
2019-03-19T16:07:32.106Z,16.02
2019-03-19T16:10:20.400Z,15.71
2019-03-19T16:13:08.491Z,15.36
2019-03-19T16:15:57.394Z,15.15
2019-03-19T16:18:46.036Z,15.03
2019-03-19T16:21:34.255Z,14.88
2019-03-19T16:24:21.983Z,14.62
2019-03-19T16:27:10.073Z,14.43
2019-03-19T16:30:03.989Z,14.19
2019-03-19T16:32:51.899Z,14.04
2019-03-19T16:35:43.179Z,13.85
2019-03-19T16:39:11.372Z,13.52
2019-03-19T16:42:22.153Z,13.16
2019-03-19T16:45:17.769Z,13.07
2019-03-19T16:48:26.983Z,13.04
2019-03-19T16:51:25.581Z,13.06
2019-03-19T16:54:16.457Z,13.07
2019-03-19T16:57:05.029Z,13.24
2019-03-19T16:59:53.604Z,13.14
2019-03-19T17:02:41.975Z,13.05
2019-03-19T17:05:30.183Z,12.75
2019-03-19T17:08:18.672Z,12.76
2019-03-19T17:11:06.891Z,12.34
2019-03-19T17:13:36.740Z,12.31
2019-03-19T17:16:06.590Z,12.32
2019-03-19T17:18:36.520Z,12.41
2019-03-19T17:21:06.385Z,12.38
2019-03-19T17:23:37.632Z,11.93
2019-03-19T17:26:07.463Z,11.97
2019-03-19T17:28:38.071Z,11.88
2019-03-19T17:31:07.896Z,11.68
2019-03-19T17:33:37.820Z,11.65
2019-03-19T17:36:07.656Z,11.70
2019-03-19T17:38:37.863Z,11.62
2019-03-19T17:41:07.732Z,11.53
2019-03-19T17:43:37.600Z,11.36
2019-03-19T17:46:07.440Z,11.34
2019-03-19T17:48:37.407Z,11.52
2019-03-19T17:51:07.739Z,11.45
2019-03-19T17:53:37.558Z,11.31
2019-03-19T17:56:09.889Z,11.24
2019-03-19T17:58:39.188Z,10.89
2019-03-19T18:01:17.116Z,10.84
2019-03-19T18:03:40.993Z,10.59
2019-03-19T18:06:10.814Z,9.96
2019-03-19T18:08:40.639Z,9.64
2019-03-19T18:11:10.872Z,9.57
2019-03-19T18:13:40.688Z,9.43
2019-03-19T18:16:11.292Z,9.49
2019-03-19T18:18:41.161Z,9.27
2019-03-19T18:21:10.983Z,9.43
2019-03-19T18:23:41.349Z,9.69
2019-03-19T18:26:11.215Z,9.67
2019-03-19T18:28:41.055Z,9.67
2019-03-19T18:31:10.883Z,9.78
2019-03-19T18:33:40.794Z,9.91
2019-03-19T18:36:10.623Z,9.56
2019-03-19T18:38:40.450Z,8.68
2019-03-19T18:41:10.344Z,7.94
2019-03-19T18:43:41.232Z,8.00
2019-03-19T18:46:11.065Z,8.12
2019-03-19T18:48:41.027Z,8.56
2019-03-19T18:51:10.854Z,8.79
2019-03-19T18:53:40.751Z,8.99
2019-03-19T18:56:10.610Z,9.49
2019-03-19T18:58:40.488Z,9.46
2019-03-19T19:01:10.302Z,9.15
2019-03-19T19:03:40.395Z,8.70
2019-03-19T19:06:11.033Z,8.71
2019-03-19T19:08:40.876Z,8.87
2019-03-19T19:11:10.783Z,9.01
2019-03-19T19:13:40.943Z,8.98
2019-03-19T19:16:10.798Z,8.77
2019-03-19T19:18:47.284Z,7.88
2019-03-19T19:21:55.994Z,7.58
2019-03-19T19:24:46.337Z,7.54
2019-03-19T19:27:34.703Z,7.83
2019-03-19T19:30:05.285Z,8.20
2019-03-19T19:32:35.131Z,8.50
2019-03-19T19:35:05.431Z,8.53
2019-03-19T19:37:35.709Z,8.63
2019-03-19T19:40:06.473Z,8.41
2019-03-19T19:42:36.298Z,8.35
2019-03-19T19:45:07.379Z,7.74
2019-03-19T19:47:37.211Z,7.25
2019-03-19T19:50:07.761Z,6.87
2019-03-19T19:52:37.622Z,6.51
2019-03-19T19:55:08.324Z,6.53
2019-03-19T19:57:38.249Z,6.47
2019-03-19T20:00:09.385Z,6.39
2019-03-19T20:02:39.242Z,6.54
2019-03-19T20:05:09.196Z,6.62
2019-03-19T20:07:39.078Z,6.73
2019-03-19T20:10:10.284Z,6.91
2019-03-19T20:12:40.439Z,7.03
2019-03-19T20:15:10.406Z,6.69
2019-03-19T20:17:40.245Z,6.09
2019-03-19T20:20:12.563Z,5.90
2019-03-19T20:22:44.700Z,5.79
2019-03-19T20:25:13.950Z,5.74
2019-03-19T20:27:43.822Z,5.71
2019-03-19T20:30:15.170Z,5.76
2019-03-19T20:32:44.995Z,5.87
2019-03-19T20:35:15.302Z,5.98
2019-03-19T20:37:45.124Z,6.32
2019-03-19T20:40:15.099Z,6.48
2019-03-19T20:42:45.548Z,6.25
2019-03-19T20:45:15.391Z,6.25
2019-03-19T20:47:45.248Z,6.14
2019-03-19T20:50:16.625Z,5.95
2019-03-19T20:52:46.570Z,5.99
2019-03-19T20:55:16.832Z,6.20
2019-03-19T20:57:46.852Z,6.23
2019-03-19T21:00:35.561Z,6.32
2019-03-19T21:03:35.209Z,6.29
2019-03-19T21:06:14.028Z,6.10
2019-03-19T21:09:01.790Z,5.50
2019-03-19T21:11:50.101Z,4.92
2019-03-19T21:14:38.223Z,4.38
2019-03-19T21:17:37.114Z,4.15
2019-03-19T21:20:25.679Z,4.15
2019-03-19T21:23:14.141Z,4.20
2019-03-19T21:26:02.026Z,4.33
2019-03-19T21:28:50.636Z,4.34
2019-03-19T21:31:38.980Z,4.32
2019-03-19T21:34:27.426Z,4.42
2019-03-19T21:37:15.761Z,4.79
2019-03-19T21:40:04.491Z,4.94
2019-03-19T21:42:56.206Z,5.22
2019-03-19T21:45:44.929Z,5.14
2019-03-19T21:48:36.497Z,5.40
2019-03-19T21:51:24.437Z,5.38
2019-03-19T21:54:12.352Z,5.37
2019-03-19T21:57:00.056Z,5.41
2019-03-19T21:59:49.319Z,5.30
2019-03-19T22:02:36.851Z,5.54
2019-03-19T22:05:24.693Z,5.08
2019-03-19T22:08:13.169Z,4.77
2019-03-19T22:11:01.108Z,4.72
2019-03-19T22:13:49.579Z,5.07
2019-03-19T22:16:38.220Z,4.46
2019-03-19T22:19:26.707Z,3.77
2019-03-19T22:22:16.606Z,3.74
2019-03-19T22:25:05.253Z,4.01
2019-03-19T22:27:54.088Z,4.26
2019-03-19T22:30:41.824Z,4.61
2019-03-19T22:33:33.488Z,4.74
2019-03-19T22:36:20.205Z,4.72
2019-03-19T22:39:08.980Z,4.78
2019-03-19T22:41:57.927Z,4.39
2019-03-19T22:44:46.528Z,4.08
2019-03-19T22:47:34.678Z,3.92
2019-03-19T22:50:05.136Z,4.23
2019-03-19T22:52:35.068Z,4.24
2019-03-19T22:55:05.118Z,4.30
2019-03-19T22:57:35.720Z,3.91
2019-03-19T23:00:07.146Z,3.77
2019-03-19T23:02:42.551Z,3.46
2019-03-19T23:05:13.819Z,3.20
2019-03-19T23:07:43.656Z,3.10
2019-03-19T23:10:16.250Z,3.00
2019-03-19T23:12:46.603Z,2.84
2019-03-19T23:15:16.440Z,2.88
2019-03-19T23:17:46.677Z,2.95
2019-03-19T23:20:17.063Z,2.84
2019-03-19T23:22:46.927Z,2.79
2019-03-19T23:25:16.949Z,2.35
2019-03-19T23:27:46.776Z,2.38
2019-03-19T23:30:16.614Z,2.60
2019-03-19T23:32:46.463Z,2.75
2019-03-19T23:35:16.293Z,3.10
2019-03-19T23:37:46.124Z,3.38
2019-03-19T23:40:16.108Z,3.68
2019-03-19T23:42:46.376Z,3.87
2019-03-19T23:45:16.305Z,3.95
2019-03-19T23:47:46.211Z,3.83
2019-03-19T23:50:17.318Z,3.91
2019-03-19T23:52:47.359Z,3.61
2019-03-19T23:55:17.573Z,3.78
2019-03-19T23:57:47.388Z,3.81
